Cedar Grove, New Jersey
Current Conditions -  °F | °C
As of 10:53 PM on Saturday 25 Oct 2014 (Local Time) from KCDW Reporting Station
Scattered Clouds Scattered Clouds  
Wind Chill: 60°   Ceiling: Unl
Heat Index: 60°   Visibility: 10mi
Dew Point: 43°   Wind: 6mph
Humidity: 53%   Direction: 250°WSW
Pressure: 29.59"   Gusts: NA
Location:  40.85°N, 74.23°W
Report Text: KCDW 260253Z 25005KT 10SM FEW075 SCT100 16/06 A2959 RMK AO2 SLP026 T01560061 58014
Loading
Personal Weather Stations






























Interactive Weather Map
Tropical Storm Tracking
New forecast layout! Learn more

10-Day Weather Forecast

Advertisements
Track Severe Weather on mobile